If you wish to contribute or participate in the discussions about articles you are invited to join SKYbrary as a registered user

 Actions

Trondheim/Vaernes

From SKYbrary Wiki

ENVA
Airport
ICAO: ENVA
Summary
Name Trondheim/Vaernes
Region Europe
Territory Norway NO.gif
Location Trondheim, Norway
Serving
Coordinates 63° 27' 45.00" N, 10° 55' 24.00" E
Runways
Designator Length Width Surface ROPS
9/27 2759 m9,051.837 ft
45 m147.638 ft
ASP no/no
13/31 1454 m4,770.341 ft
36 m118.11 ft
ASP /
14/32 950 m3,116.798 ft
36 m118.11 ft
ASP /


METAR
Observation ENVA 170320Z 10010KT CAVOK 00/M07 Q1016 RMK WIND 670FT 16017KT
Station Trondheim / Vaernes
Date/Time 17 December 2018 03:20:00
Wind direction 100°
Wind speed 10 kts
Lowest cloud amount clouds and visibility OK
Temperature 0°C
Dew point
Humidity 59%
QNH 1016 hPa
Weather condition n/a


Trondheim Airport

ICAO: ENVA IATA: TRD

Description

International airport serving Trondheim, Norway.

Climatology

Temperate Marine climate/Oceanic climate (Köppen climate classification Cfb). Moderately cool summer and comparatively warm winter with a temperature range of only 14°C57.2 °F
287.15 K
516.87 °R
. Prevailing south-westerly winds from the Atlantic Ocean.

Maps

Terrain

Loading map...

Airport Layout

Loading map...


Accidents & Serious Incidents at or in vicinity of ENVA

None on SKYbrary